sensor_id;sensor_type;location;lat;lon;timestamp;pressure;altitude;pressure_sealevel;temperature;humidity
57234;BME280;43090;52.604;13.318;2023-05-01T00:01:29;101615.63;;;6.51;74.43
57234;BME280;43090;52.604;13.318;2023-05-01T00:03:55;101609.03;;;6.38;74.93
57234;BME280;43090;52.604;13.318;2023-05-01T00:06:22;101627.50;;;6.64;74.75
57234;BME280;43090;52.604;13.318;2023-05-01T00:08:49;101616.84;;;6.42;74.77
57234;BME280;43090;52.604;13.318;2023-05-01T00:11:15;101594.63;;;6.21;74.55
57234;BME280;43090;52.604;13.318;2023-05-01T00:13:43;101608.59;;;6.26;75.16
57234;BME280;43090;52.604;13.318;2023-05-01T00:16:11;101589.19;;;6.46;73.85
57234;BME280;43090;52.604;13.318;2023-05-01T00:18:38;101619.13;;;6.52;74.39
57234;BME280;43090;52.604;13.318;2023-05-01T00:21:04;101624.28;;;6.56;73.63
57234;BME280;43090;52.604;13.318;2023-05-01T00:23:31;101627.13;;;6.52;73.85
57234;BME280;43090;52.604;13.318;2023-05-01T00:25:57;101624.75;;;6.44;73.95
57234;BME280;43090;52.604;13.318;2023-05-01T00:28:24;101588.56;;;6.40;73.22
57234;BME280;43090;52.604;13.318;2023-05-01T00:30:50;101626.13;;;6.54;72.78
57234;BME280;43090;52.604;13.318;2023-05-01T00:33:17;101620.50;;;6.62;73.47
57234;BME280;43090;52.604;13.318;2023-05-01T00:35:44;101620.56;;;6.38;74.97
57234;BME280;43090;52.604;13.318;2023-05-01T00:38:11;101587.75;;;6.38;74.31
57234;BME280;43090;52.604;13.318;2023-05-01T00:40:44;101610.31;;;6.51;74.37
57234;BME280;43090;52.604;13.318;2023-05-01T00:43:11;101581.31;;;6.21;74.33
57234;BME280;43090;52.604;13.318;2023-05-01T00:45:43;101605.66;;;6.34;74.42
57234;BME280;43090;52.604;13.318;2023-05-01T00:48:11;101585.16;;;6.14;74.73
57234;BME280;43090;52.604;13.318;2023-05-01T00:50:38;101605.09;;;6.48;74.10
57234;BME280;43090;52.604;13.318;2023-05-01T00:53:05;101591.94;;;5.97;75.60
57234;BME280;43090;52.604;13.318;2023-05-01T00:55:32;101588.28;;;6.02;75.17
57234;BME280;43090;52.604;13.318;2023-05-01T00:57:59;101572.78;;;6.13;75.20
57234;BME280;43090;52.604;13.318;2023-05-01T01:00:26;101585.75;;;5.98;75.89
57234;BME280;43090;52.604;13.318;2023-05-01T01:02:52;101578.22;;;6.10;75.44
57234;BME280;43090;52.604;13.318;2023-05-01T01:05:20;101577.91;;;6.17;74.51
57234;BME280;43090;52.604;13.318;2023-05-01T01:07:54;101593.81;;;6.19;75.50
57234;BME280;43090;52.604;13.318;2023-05-01T01:10:46;101591.59;;;6.30;75.53
57234;BME280;43090;52.604;13.318;2023-05-01T01:13:20;101570.75;;;6.20;75.26
57234;BME280;43090;52.604;13.318;2023-05-01T01:16:15;101585.94;;;6.16;76.05
57234;BME280;43090;52.604;13.318;2023-05-01T01:18:55;101582.06;;;6.25;75.79
57234;BME280;43090;52.604;13.318;2023-05-01T01:21:42;101586.41;;;6.27;75.42
57234;BME280;43090;52.604;13.318;2023-05-01T01:24:28;101574.53;;;6.14;75.44
57234;BME280;43090;52.604;13.318;2023-05-01T01:27:31;101588.03;;;6.31;74.44
57234;BME280;43090;52.604;13.318;2023-05-01T01:50:58;101550.69;;;4.89;80.75
57234;BME280;43090;52.604;13.318;2023-05-01T01:53:27;101552.75;;;5.31;80.16
57234;BME280;43090;52.604;13.318;2023-05-01T01:55:56;101532.28;;;5.35;78.93
57234;BME280;43090;52.604;13.318;2023-05-01T01:58:28;101540.31;;;5.57;78.13
57234;BME280;43090;52.604;13.318;2023-05-01T02:00:56;101545.34;;;5.41;78.74
57234;BME280;43090;52.604;13.318;2023-05-01T02:03:24;101536.69;;;5.60;77.87
57234;BME280;43090;52.604;13.318;2023-05-01T02:05:54;101543.41;;;5.68;77.41
57234;BME280;43090;52.604;13.318;2023-05-01T02:08:23;101536.56;;;5.63;77.31
57234;BME280;43090;52.604;13.318;2023-05-01T02:10:50;101542.38;;;5.49;78.67
57234;BME280;43090;52.604;13.318;2023-05-01T02:13:27;101539.06;;;5.67;77.28
57234;BME280;43090;52.604;13.318;2023-05-01T02:15:57;101528.53;;;5.64;77.30
57234;BME280;43090;52.604;13.318;2023-05-01T02:18:27;101541.41;;;5.75;77.03
57234;BME280;43090;52.604;13.318;2023-05-01T02:20:55;101530.06;;;5.70;76.71
57234;BME280;43090;52.604;13.318;2023-05-01T02:23:23;101541.88;;;5.63;77.44
57234;BME280;43090;52.604;13.318;2023-05-01T02:25:52;101528.53;;;5.64;77.39
57234;BME280;43090;52.604;13.318;2023-05-01T02:28:23;101515.53;;;5.57;77.20
57234;BME280;43090;52.604;13.318;2023-05-01T02:30:52;101508.88;;;5.68;76.62
57234;BME280;43090;52.604;13.318;2023-05-01T02:33:18;101533.41;;;5.77;76.11
57234;BME280;43090;52.604;13.318;2023-05-01T02:35:45;101494.59;;;5.24;77.88
57234;BME280;43090;52.604;13.318;2023-05-01T02:38:15;101506.41;;;5.40;77.38
57234;BME280;43090;52.604;13.318;2023-05-01T02:40:45;101520.00;;;5.56;77.17
57234;BME280;43090;52.604;13.318;2023-05-01T02:43:14;101476.09;;;5.46;76.49
57234;BME280;43090;52.604;13.318;2023-05-01T02:45:42;101510.97;;;5.60;76.67
57234;BME280;43090;52.604;13.318;2023-05-01T02:48:12;101480.56;;;5.45;76.54
57234;BME280;43090;52.604;13.318;2023-05-01T02:50:40;101468.47;;;5.13;77.52
57234;BME280;43090;52.604;13.318;2023-05-01T02:53:08;101504.63;;;5.41;76.92
57234;BME280;43090;52.604;13.318;2023-05-01T02:55:35;101494.97;;;5.38;77.25
57234;BME280;43090;52.604;13.318;2023-05-01T02:58:02;101486.56;;;5.50;77.11
57234;BME280;43090;52.604;13.318;2023-05-01T03:00:28;101491.91;;;5.49;76.45
57234;BME280;43090;52.604;13.318;2023-05-01T03:02:55;101501.59;;;5.50;77.88
57234;BME280;43090;52.604;13.318;2023-05-01T03:05:22;101485.94;;;5.18;78.51
57234;BME280;43090;52.604;13.318;2023-05-01T03:07:48;101477.19;;;5.40;77.73
57234;BME280;43090;52.604;13.318;2023-05-01T03:10:16;101490.28;;;5.68;76.83
57234;BME280;43090;52.604;13.318;2023-05-01T03:12:43;101485.09;;;5.65;77.32
57234;BME280;43090;52.604;13.318;2023-05-01T03:15:09;101476.50;;;5.35;77.80
57234;BME280;43090;52.604;13.318;2023-05-01T03:17:41;101458.84;;;5.34;77.56
57234;BME280;43090;52.604;13.318;2023-05-01T03:20:07;101473.66;;;5.40;77.61
57234;BME280;43090;52.604;13.318;2023-05-01T03:22:36;101467.91;;;5.52;77.35
57234;BME280;43090;52.604;13.318;2023-05-01T03:25:02;101435.91;;;5.31;77.41
57234;BME280;43090;52.604;13.318;2023-05-01T03:27:32;101468.59;;;5.57;77.21
57234;BME280;43090;52.604;13.318;2023-05-01T03:29:58;101437.53;;;5.36;77.72
57234;BME280;43090;52.604;13.318;2023-05-01T03:32:25;101458.03;;;5.56;77.13
57234;BME280;43090;52.604;13.318;2023-05-01T03:34:54;101473.56;;;5.66;76.85
57234;BME280;43090;52.604;13.318;2023-05-01T03:37:20;101475.28;;;5.67;76.40
57234;BME280;43090;52.604;13.318;2023-05-01T03:39:47;101484.88;;;5.72;76.63
57234;BME280;43090;52.604;13.318;2023-05-01T03:42:14;101469.84;;;5.71;76.55
57234;BME280;43090;52.604;13.318;2023-05-01T03:44:40;101437.88;;;5.26;77.66
57234;BME280;43090;52.604;13.318;2023-05-01T03:47:07;101443.66;;;5.38;77.39
57234;BME280;43090;52.604;13.318;2023-05-01T03:49:33;101449.75;;;5.40;77.36
57234;BME280;43090;52.604;13.318;2023-05-01T03:52:00;101462.47;;;5.55;77.17
57234;BME280;43090;52.604;13.318;2023-05-01T03:54:26;101428.34;;;5.21;77.56
57234;BME280;43090;52.604;13.318;2023-05-01T03:56:53;101445.03;;;5.48;77.17
57234;BME280;43090;52.604;13.318;2023-05-01T03:59:19;101424.59;;;5.50;76.73
57234;BME280;43090;52.604;13.318;2023-05-01T04:01:46;101469.97;;;5.67;77.80
57234;BME280;43090;52.604;13.318;2023-05-01T04:04:12;101444.63;;;5.59;77.34
57234;BME280;43090;52.604;13.318;2023-05-01T04:06:39;101444.50;;;5.62;76.74
57234;BME280;43090;52.604;13.318;2023-05-01T04:09:06;101437.50;;;5.59;76.60
57234;BME280;43090;52.604;13.318;2023-05-01T04:14:22;101461.69;;;5.75;77.36
57234;BME280;43090;52.604;13.318;2023-05-01T04:16:49;101418.59;;;5.45;77.17
57234;BME280;43090;52.604;13.318;2023-05-01T04:19:16;101447.72;;;5.70;76.89
57234;BME280;43090;52.604;13.318;2023-05-01T04:21:42;101460.00;;;5.73;76.71
57234;BME280;43090;52.604;13.318;2023-05-01T04:24:09;101452.72;;;5.78;76.46
57234;BME280;43090;52.604;13.318;2023-05-01T04:26:36;101452.78;;;5.76;76.84
57234;BME280;43090;52.604;13.318;2023-05-01T04:29:02;101449.84;;;5.84;77.13
57234;BME280;43090;52.604;13.318;2023-05-01T04:31:31;101430.41;;;5.60;77.40
57234;BME280;43090;52.604;13.318;2023-05-01T04:33:58;101455.16;;;5.84;77.51
57234;BME280;43090;52.604;13.318;2023-05-01T04:36:25;101448.19;;;5.58;78.47
57234;BME280;43090;52.604;13.318;2023-05-01T04:38:51;101412.34;;;5.46;79.09
57234;BME280;43090;52.604;13.318;2023-05-01T04:41:18;101427.34;;;5.71;78.49
57234;BME280;43090;52.604;13.318;2023-05-01T04:43:44;101414.59;;;5.79;78.11
57234;BME280;43090;52.604;13.318;2023-05-01T04:46:11;101421.13;;;5.70;78.15
57234;BME280;43090;52.604;13.318;2023-05-01T04:48:37;101443.81;;;6.03;77.96
57234;BME280;43090;52.604;13.318;2023-05-01T04:51:04;101405.47;;;5.64;78.51
57234;BME280;43090;52.604;13.318;2023-05-01T04:53:31;101410.19;;;5.78;79.38
57234;BME280;43090;52.604;13.318;2023-05-01T04:55:57;101432.94;;;6.09;78.69
57234;BME280;43090;52.604;13.318;2023-05-01T04:58:24;101428.84;;;6.22;78.30
57234;BME280;43090;52.604;13.318;2023-05-01T05:00:50;101427.94;;;6.22;78.36
57234;BME280;43090;52.604;13.318;2023-05-01T05:03:16;101419.13;;;6.21;78.32
57234;BME280;43090;52.604;13.318;2023-05-01T05:05:45;101419.03;;;6.23;78.34
57234;BME280;43090;52.604;13.318;2023-05-01T05:08:12;101423.19;;;6.30;78.95
57234;BME280;43090;52.604;13.318;2023-05-01T05:10:38;101422.53;;;6.25;77.87
57234;BME280;43090;52.604;13.318;2023-05-01T05:13:08;101414.84;;;6.38;77.88
57234;BME280;43090;52.604;13.318;2023-05-01T05:15:35;101415.94;;;6.54;78.69
57234;BME280;43090;52.604;13.318;2023-05-01T05:18:01;101424.84;;;6.53;76.08
57234;BME280;43090;52.604;13.318;2023-05-01T05:20:28;101435.88;;;6.85;76.00
57234;BME280;43090;52.604;13.318;2023-05-01T05:22:55;101410.91;;;6.88;76.43
57234;BME280;43090;52.604;13.318;2023-05-01T05:25:21;101407.34;;;6.89;75.12
57234;BME280;43090;52.604;13.318;2023-05-01T05:27:49;101422.75;;;7.01;75.56
57234;BME280;43090;52.604;13.318;2023-05-01T05:30:16;101409.91;;;7.30;75.22
57234;BME280;43090;52.604;13.318;2023-05-01T05:32:42;101408.88;;;7.32;74.33
57234;BME280;43090;52.604;13.318;2023-05-01T05:35:09;101411.63;;;7.50;73.82
57234;BME280;43090;52.604;13.318;2023-05-01T05:37:39;101406.25;;;7.52;72.62
57234;BME280;43090;52.604;13.318;2023-05-01T05:40:06;101406.00;;;7.56;72.38
57234;BME280;43090;52.604;13.318;2023-05-01T05:42:33;101396.41;;;7.71;68.32
57234;BME280;43090;52.604;13.318;2023-05-01T05:44:59;101403.00;;;7.81;69.80
57234;BME280;43090;52.604;13.318;2023-05-01T05:47:26;101397.75;;;7.80;70.08
57234;BME280;43090;52.604;13.318;2023-05-01T05:49:52;101409.97;;;8.03;68.91
57234;BME280;43090;52.604;13.318;2023-05-01T05:52:21;101400.78;;;8.09;68.17
57234;BME280;43090;52.604;13.318;2023-05-01T05:54:47;101393.09;;;8.20;67.15
57234;BME280;43090;52.604;13.318;2023-05-01T05:57:14;101374.97;;;8.44;67.42
57234;BME280;43090;52.604;13.318;2023-05-01T05:59:41;101376.63;;;8.64;65.51
57234;BME280;43090;52.604;13.318;2023-05-01T06:02:07;101398.00;;;8.98;65.06
57234;BME280;43090;52.604;13.318;2023-05-01T06:04:34;101389.81;;;8.85;64.63
57234;BME280;43090;52.604;13.318;2023-05-01T06:07:01;101371.06;;;9.03;62.79
57234;BME280;43090;52.604;13.318;2023-05-01T06:09:27;101393.84;;;8.92;58.34
57234;BME280;43090;52.604;13.318;2023-05-01T06:11:54;101360.91;;;9.25;59.66
57234;BME280;43090;52.604;13.318;2023-05-01T06:14:20;101365.44;;;9.23;56.55
57234;BME280;43090;52.604;13.318;2023-05-01T06:16:47;101343.91;;;8.94;58.69
57234;BME280;43090;52.604;13.318;2023-05-01T06:19:14;101376.41;;;9.34;59.79
57234;BME280;43090;52.604;13.318;2023-05-01T06:21:41;101395.41;;;9.62;58.18
57234;BME280;43090;52.604;13.318;2023-05-01T06:24:07;101346.22;;;9.48;57.00
57234;BME280;43090;52.604;13.318;2023-05-01T06:26:34;101388.66;;;9.71;57.95
57234;BME280;43090;52.604;13.318;2023-05-01T06:29:01;101352.28;;;9.36;55.99
57234;BME280;43090;52.604;13.318;2023-05-01T06:31:27;101357.16;;;9.76;52.60
57234;BME280;43090;52.604;13.318;2023-05-01T06:33:57;101377.72;;;10.06;58.23
57234;BME280;43090;52.604;13.318;2023-05-01T06:36:23;101376.22;;;10.16;56.70
57234;BME280;43090;52.604;13.318;2023-05-01T06:38:50;101385.91;;;10.33;56.84
57234;BME280;43090;52.604;13.318;2023-05-01T06:41:16;101344.50;;;10.40;55.25
57234;BME280;43090;52.604;13.318;2023-05-01T06:43:43;101374.31;;;10.18;53.52
57234;BME280;43090;52.604;13.318;2023-05-01T06:46:10;101376.53;;;10.42;53.77
57234;BME280;43090;52.604;13.318;2023-05-01T06:48:37;101391.50;;;10.75;51.38
57234;BME280;43090;52.604;13.318;2023-05-01T06:51:04;101387.94;;;11.17;52.67
57234;BME280;43090;52.604;13.318;2023-05-01T06:53:31;101388.84;;;11.45;49.32
57234;BME280;43090;52.604;13.318;2023-05-01T06:55:57;101366.16;;;11.51;49.64
57234;BME280;43090;52.604;13.318;2023-05-01T06:58:24;101344.00;;;11.20;48.73
57234;BME280;43090;52.604;13.318;2023-05-01T07:00:53;101344.34;;;11.70;48.37
57234;BME280;43090;52.604;13.318;2023-05-01T07:03:28;101332.34;;;11.76;47.20
57234;BME280;43090;52.604;13.318;2023-05-01T07:06:02;101356.00;;;12.11;48.96
57234;BME280;43090;52.604;13.318;2023-05-01T07:08:30;101344.91;;;12.15;48.42
57234;BME280;43090;52.604;13.318;2023-05-01T07:10:57;101377.50;;;12.24;47.25
57234;BME280;43090;52.604;13.318;2023-05-01T07:13:25;101365.41;;;12.04;46.61
57234;BME280;43090;52.604;13.318;2023-05-01T07:15:57;101372.09;;;12.11;45.62
57234;BME280;43090;52.604;13.318;2023-05-01T07:18:35;101356.13;;;12.35;47.98
57234;BME280;43090;52.604;13.318;2023-05-01T07:21:03;101365.38;;;12.57;47.84
57234;BME280;43090;52.604;13.318;2023-05-01T07:23:30;101349.13;;;12.32;46.00
57234;BME280;43090;52.604;13.318;2023-05-01T07:26:01;101337.13;;;12.51;47.65
57234;BME280;43090;52.604;13.318;2023-05-01T07:28:28;101362.56;;;13.10;45.43
57234;BME280;43090;52.604;13.318;2023-05-01T07:30:55;101346.75;;;13.79;45.65
57234;BME280;43090;52.604;13.318;2023-05-01T07:33:22;101331.63;;;14.25;46.13
57234;BME280;43090;52.604;13.318;2023-05-01T07:35:51;101315.31;;;14.74;43.19
57234;BME280;43090;52.604;13.318;2023-05-01T07:38:21;101333.44;;;14.25;41.32
57234;BME280;43090;52.604;13.318;2023-05-01T07:40:52;101303.75;;;14.49;42.83
57234;BME280;43090;52.604;13.318;2023-05-01T07:43:19;101314.75;;;15.25;41.09
57234;BME280;43090;52.604;13.318;2023-05-01T07:45:54;101311.75;;;15.51;39.55
57234;BME280;43090;52.604;13.318;2023-05-01T07:48:25;101305.59;;;15.05;38.65
57234;BME280;43090;52.604;13.318;2023-05-01T07:50:53;101289.00;;;15.21;38.54
57234;BME280;43090;52.604;13.318;2023-05-01T07:53:20;101341.50;;;15.28;39.08
57234;BME280;43090;52.604;13.318;2023-05-01T07:55:48;101308.75;;;14.42;39.42
57234;BME280;43090;52.604;13.318;2023-05-01T07:58:15;101311.50;;;14.99;40.57
57234;BME280;43090;52.604;13.318;2023-05-01T08:00:42;101303.88;;;13.65;40.50
57234;BME280;43090;52.604;13.318;2023-05-01T08:03:12;101278.41;;;13.93;40.55
57234;BME280;43090;52.604;13.318;2023-05-01T08:05:40;101315.00;;;14.31;42.05
57234;BME280;43090;52.604;13.318;2023-05-01T08:08:24;101307.16;;;13.93;41.67
57234;BME280;43090;52.604;13.318;2023-05-01T08:10:51;101285.78;;;14.14;40.17
57234;BME280;43090;52.604;13.318;2023-05-01T08:13:18;101297.81;;;14.21;40.25
57234;BME280;43090;52.604;13.318;2023-05-01T08:15:45;101298.22;;;13.92;43.19
57234;BME280;43090;52.604;13.318;2023-05-01T08:18:12;101277.16;;;13.86;41.64
57234;BME280;43090;52.604;13.318;2023-05-01T08:20:50;101298.22;;;13.92;40.29
57234;BME280;43090;52.604;13.318;2023-05-01T08:23:17;101279.72;;;14.46;41.14
57234;BME280;43090;52.604;13.318;2023-05-01T08:25:44;101305.75;;;14.81;41.55
57234;BME280;43090;52.604;13.318;2023-05-01T08:28:13;101283.06;;;14.61;42.04
57234;BME280;43090;52.604;13.318;2023-05-01T08:30:40;101275.31;;;14.33;38.10
57234;BME280;43090;52.604;13.318;2023-05-01T08:33:06;101295.97;;;14.69;39.34
57234;BME280;43090;52.604;13.318;2023-05-01T08:35:33;101288.09;;;14.65;41.11
57234;BME280;43090;52.604;13.318;2023-05-01T08:38:00;101274.34;;;14.46;40.88
57234;BME280;43090;52.604;13.318;2023-05-01T08:40:26;101297.06;;;14.66;41.10
57234;BME280;43090;52.604;13.318;2023-05-01T08:42:59;101276.19;;;14.34;42.05
57234;BME280;43090;52.604;13.318;2023-05-01T08:45:31;101278.75;;;15.15;41.57
57234;BME280;43090;52.604;13.318;2023-05-01T08:48:05;101268.75;;;14.72;40.28
57234;BME280;43090;52.604;13.318;2023-05-01T08:50:33;101266.53;;;14.54;41.60
57234;BME280;43090;52.604;13.318;2023-05-01T08:53:02;101247.00;;;15.07;40.71
57234;BME280;43090;52.604;13.318;2023-05-01T08:55:30;101270.72;;;15.36;40.11
57234;BME280;43090;52.604;13.318;2023-05-01T08:57:58;101262.69;;;15.13;39.18
57234;BME280;43090;52.604;13.318;2023-05-01T09:00:25;101271.06;;;15.43;36.10
57234;BME280;43090;52.604;13.318;2023-05-01T09:02:52;101247.34;;;15.14;40.53
57234;BME280;43090;52.604;13.318;2023-05-01T09:05:20;101248.31;;;15.24;41.05
57234;BME280;43090;52.604;13.318;2023-05-01T09:07:47;101260.69;;;15.59;39.87
57234;BME280;43090;52.604;13.318;2023-05-01T09:10:17;101247.13;;;15.49;36.82
57234;BME280;43090;52.604;13.318;2023-05-01T09:12:48;101240.63;;;15.52;37.36
57234;BME280;43090;52.604;13.318;2023-05-01T09:15:17;101244.81;;;15.66;39.10
57234;BME280;43090;52.604;13.318;2023-05-01T09:17:44;101232.41;;;15.75;40.34
57234;BME280;43090;52.604;13.318;2023-05-01T09:20:11;101231.19;;;15.68;37.55
57234;BME280;43090;52.604;13.318;2023-05-01T09:22:38;101224.63;;;15.93;34.99
57234;BME280;43090;52.604;13.318;2023-05-01T09:25:04;101228.50;;;15.68;35.92
57234;BME280;43090;52.604;13.318;2023-05-01T09:27:36;101224.09;;;15.66;38.68
57234;BME280;43090;52.604;13.318;2023-05-01T09:30:04;101216.34;;;15.73;38.26
57234;BME280;43090;52.604;13.318;2023-05-01T09:32:32;101219.81;;;15.43;38.76
57234;BME280;43090;52.604;13.318;2023-05-01T09:35:08;101220.16;;;15.71;38.27
57234;BME280;43090;52.604;13.318;2023-05-01T09:37:35;101214.59;;;15.84;36.59
57234;BME280;43090;52.604;13.318;2023-05-01T09:42:34;101213.22;;;15.89;37.74
57234;BME280;43090;52.604;13.318;2023-05-01T09:45:03;101192.88;;;15.85;37.20
57234;BME280;43090;52.604;13.318;2023-05-01T09:47:30;101195.47;;;15.96;37.55
57234;BME280;43090;52.604;13.318;2023-05-01T09:49:56;101186.66;;;15.94;34.11
57234;BME280;43090;52.604;13.318;2023-05-01T09:52:26;101204.44;;;15.97;37.83
57234;BME280;43090;52.604;13.318;2023-05-01T09:55:13;101197.69;;;16.12;36.53
57234;BME280;43090;52.604;13.318;2023-05-01T09:57:39;101189.63;;;16.53;36.29
57234;BME280;43090;52.604;13.318;2023-05-01T10:00:09;101171.06;;;16.39;36.70
57234;BME280;43090;52.604;13.318;2023-05-01T10:02:37;101173.31;;;16.24;39.10
57234;BME280;43090;52.604;13.318;2023-05-01T10:05:05;101178.94;;;16.11;36.93
57234;BME280;43090;52.604;13.318;2023-05-01T10:07:32;101160.19;;;16.60;37.55
57234;BME280;43090;52.604;13.318;2023-05-01T10:10:18;101178.22;;;16.49;34.74
57234;BME280;43090;52.604;13.318;2023-05-01T10:12:47;101161.06;;;16.70;36.84
57234;BME280;43090;52.604;13.318;2023-05-01T10:15:14;101144.78;;;16.41;35.14
57234;BME280;43090;52.604;13.318;2023-05-01T10:17:50;101164.22;;;16.75;35.06
57234;BME280;43090;52.604;13.318;2023-05-01T10:20:17;101165.06;;;16.66;35.95
57234;BME280;43090;52.604;13.318;2023-05-01T10:22:44;101149.66;;;16.57;37.16
57234;BME280;43090;52.604;13.318;2023-05-01T10:25:12;101142.00;;;16.62;36.12
57234;BME280;43090;52.604;13.318;2023-05-01T10:27:39;101133.50;;;16.76;37.46
57234;BME280;43090;52.604;13.318;2023-05-01T10:30:07;101129.38;;;16.82;37.29
57234;BME280;43090;52.604;13.318;2023-05-01T10:32:36;101140.44;;;16.19;38.47
57234;BME280;43090;52.604;13.318;2023-05-01T10:35:07;101149.53;;;16.58;35.93
57234;BME280;43090;52.604;13.318;2023-05-01T10:37:45;101122.81;;;16.24;39.20
57234;BME280;43090;52.604;13.318;2023-05-01T10:45:47;101122.28;;;16.91;35.04
57234;BME280;43090;52.604;13.318;2023-05-01T10:51:14;101121.84;;;16.86;35.81
57234;BME280;43090;52.604;13.318;2023-05-01T10:53:43;101114.25;;;16.89;35.57
57234;BME280;43090;52.604;13.318;2023-05-01T10:58:53;101108.72;;;16.71;35.99
57234;BME280;43090;52.604;13.318;2023-05-01T11:01:33;101103.56;;;16.68;36.84
57234;BME280;43090;52.604;13.318;2023-05-01T11:09:52;101086.13;;;16.92;37.69
57234;BME280;43090;52.604;13.318;2023-05-01T11:15:32;101087.09;;;17.10;35.27
57234;BME280;43090;52.604;13.318;2023-05-01T11:18:00;101075.75;;;17.07;37.22
57234;BME280;43090;52.604;13.318;2023-05-01T11:22:55;101066.50;;;17.09;37.22
57234;BME280;43090;52.604;13.318;2023-05-01T11:25:22;101057.63;;;16.48;37.38
57234;BME280;43090;52.604;13.318;2023-05-01T11:27:50;101049.81;;;16.85;39.38
57234;BME280;43090;52.604;13.318;2023-05-01T11:30:18;101047.81;;;17.06;37.45
57234;BME280;43090;52.604;13.318;2023-05-01T11:32:45;101049.56;;;16.97;37.09
57234;BME280;43090;52.604;13.318;2023-05-01T11:35:21;101029.59;;;16.59;36.50
57234;BME280;43090;52.604;13.318;2023-05-01T11:37:48;101042.84;;;16.82;38.32
57234;BME280;43090;52.604;13.318;2023-05-01T11:40:21;101037.44;;;16.92;38.22
57234;BME280;43090;52.604;13.318;2023-05-01T11:42:50;101031.88;;;17.03;37.48
57234;BME280;43090;52.604;13.318;2023-05-01T11:45:24;101025.91;;;16.99;38.48
57234;BME280;43090;52.604;13.318;2023-05-01T11:47:50;101008.97;;;16.58;38.18
57234;BME280;43090;52.604;13.318;2023-05-01T11:50:17;101015.50;;;17.05;37.74
57234;BME280;43090;52.604;13.318;2023-05-01T11:52:45;101018.56;;;17.39;37.00
57234;BME280;43090;52.604;13.318;2023-05-01T11:55:14;101017.34;;;17.61;36.84
57234;BME280;43090;52.604;13.318;2023-05-01T11:57:49;101011.84;;;17.53;36.83
57234;BME280;43090;52.604;13.318;2023-05-01T12:00:37;101002.09;;;17.70;36.66
57234;BME280;43090;52.604;13.318;2023-05-01T12:03:12;100980.28;;;17.62;35.82
57234;BME280;43090;52.604;13.318;2023-05-01T12:05:42;100984.00;;;17.98;36.00
57234;BME280;43090;52.604;13.318;2023-05-01T12:08:19;100996.94;;;18.23;35.21
57234;BME280;43090;52.604;13.318;2023-05-01T12:10:51;100990.22;;;18.09;34.48
57234;BME280;43090;52.604;13.318;2023-05-01T12:13:19;100989.28;;;18.18;34.32
57234;BME280;43090;52.604;13.318;2023-05-01T12:15:48;101000.97;;;18.01;34.86
57234;BME280;43090;52.604;13.318;2023-05-01T12:18:16;100978.06;;;17.85;35.35
57234;BME280;43090;52.604;13.318;2023-05-01T12:20:45;100993.59;;;17.83;35.07
57234;BME280;43090;52.604;13.318;2023-05-01T12:23:19;100981.44;;;18.15;35.09
57234;BME280;43090;52.604;13.318;2023-05-01T12:25:46;100968.47;;;18.19;35.56
57234;BME280;43090;52.604;13.318;2023-05-01T12:28:16;100975.28;;;18.23;33.32
57234;BME280;43090;52.604;13.318;2023-05-01T12:30:46;100982.31;;;17.88;36.75
57234;BME280;43090;52.604;13.318;2023-05-01T12:33:15;100967.19;;;17.95;34.20
57234;BME280;43090;52.604;13.318;2023-05-01T12:35:46;100969.34;;;17.91;33.74
57234;BME280;43090;52.604;13.318;2023-05-01T12:40:50;100945.75;;;18.02;33.65
57234;BME280;43090;52.604;13.318;2023-05-01T12:43:20;100957.53;;;18.10;36.09
57234;BME280;43090;52.604;13.318;2023-05-01T12:45:51;100950.56;;;17.80;34.45
57234;BME280;43090;52.604;13.318;2023-05-01T12:48:18;100956.59;;;18.02;33.99
57234;BME280;43090;52.604;13.318;2023-05-01T12:50:45;100941.38;;;18.01;36.03
57234;BME280;43090;52.604;13.318;2023-05-01T12:53:15;100930.91;;;18.42;35.41
57234;BME280;43090;52.604;13.318;2023-05-01T12:55:47;100925.81;;;18.21;34.09
57234;BME280;43090;52.604;13.318;2023-05-01T12:58:14;100922.16;;;18.30;33.83
57234;BME280;43090;52.604;13.318;2023-05-01T13:00:43;100939.56;;;18.63;34.60
57234;BME280;43090;52.604;13.318;2023-05-01T13:03:10;100928.66;;;18.55;33.11
57234;BME280;43090;52.604;13.318;2023-05-01T13:05:48;100927.44;;;18.76;37.28
57234;BME280;43090;52.604;13.318;2023-05-01T13:08:24;100928.31;;;18.58;34.99
57234;BME280;43090;52.604;13.318;2023-05-01T13:10:52;100922.13;;;18.48;34.59
57234;BME280;43090;52.604;13.318;2023-05-01T13:13:30;100911.31;;;18.30;34.56
57234;BME280;43090;52.604;13.318;2023-05-01T13:16:07;100933.75;;;18.58;35.45
57234;BME280;43090;52.604;13.318;2023-05-01T13:21:14;100895.94;;;18.75;32.74
57234;BME280;43090;52.604;13.318;2023-05-01T13:23:50;100906.78;;;18.57;34.71
57234;BME280;43090;52.604;13.318;2023-05-01T13:26:29;100886.84;;;18.84;33.40
57234;BME280;43090;52.604;13.318;2023-05-01T13:28:58;100901.78;;;18.44;37.76
57234;BME280;43090;52.604;13.318;2023-05-01T13:31:28;100895.59;;;18.34;34.18
57234;BME280;43090;52.604;13.318;2023-05-01T13:33:56;100889.47;;;18.50;38.96
57234;BME280;43090;52.604;13.318;2023-05-01T13:36:24;100881.97;;;18.43;35.16
57234;BME280;43090;52.604;13.318;2023-05-01T13:38:54;100885.50;;;18.44;34.91
57234;BME280;43090;52.604;13.318;2023-05-01T13:41:23;100887.94;;;18.47;34.37
57234;BME280;43090;52.604;13.318;2023-05-01T13:43:54;100878.47;;;18.51;36.54
57234;BME280;43090;52.604;13.318;2023-05-01T13:46:22;100881.84;;;18.53;35.02
57234;BME280;43090;52.604;13.318;2023-05-01T13:48:49;100869.28;;;18.96;34.32